Time;durP1;ratioP1;P1;durP2;ratioP2;P2;SDS_P1;SDS_P2;PMS_P1;PMS_P2;Temp;Humidity;BMP_temperature;BMP_pressure;BME280_temperature;BME280_humidity;BME280_pressure;Samples;Min_cycle;Max_cycle;Signal;HPM_P1;HPM_P2
2022/07/25 04:01:52;;;;;;;13.50;12.10;;;21.40;99.90;;;;;;5396201;23;20542;-75
2022/07/25 04:04:19;;;;;;;15.57;12.47;;;21.40;99.90;;;;;;5044836;28;20457;-75
2022/07/25 04:06:46;;;;;;;15.20;12.73;;;21.40;99.90;;;;;;5045354;28;20471;-75
2022/07/25 04:09:14;;;;;;;14.17;12.77;;;21.30;99.90;;;;;;5045112;28;20464;-75
2022/07/25 04:11:41;;;;;;;12.67;11.33;;;21.30;99.90;;;;;;5032365;28;20490;-75
2022/07/25 04:14:08;;;;;;;20.93;13.70;;;21.30;99.90;;;;;;5024574;28;20462;-75
2022/07/25 04:16:35;;;;;;;14.73;13.17;;;21.30;99.90;;;;;;5024693;28;20827;-75
2022/07/25 04:19:03;;;;;;;14.37;12.50;;;21.30;99.90;;;;;;5023334;28;20498;-75
2022/07/25 04:21:31;;;;;;;14.90;13.30;;;21.30;99.90;;;;;;5025150;28;20977;-75
2022/07/25 04:23:57;;;;;;;15.27;13.13;;;21.20;99.90;;;;;;5025135;28;20465;-75
2022/07/25 04:26:24;;;;;;;16.77;12.70;;;21.20;99.90;;;;;;5025735;28;20457;-75
2022/07/25 04:28:51;;;;;;;15.93;13.00;;;21.20;99.90;;;;;;5023798;28;20464;-75
2022/07/25 04:31:18;;;;;;;14.13;12.77;;;21.20;99.90;;;;;;5025114;28;20477;-75
2022/07/25 04:33:45;;;;;;;12.73;11.40;;;21.20;99.90;;;;;;5025371;28;20454;-75
2022/07/25 04:36:13;;;;;;;15.47;13.87;;;21.20;99.90;;;;;;5024718;28;20464;-75
2022/07/25 04:38:40;;;;;;;13.30;11.63;;;21.20;99.90;;;;;;5025292;28;20493;-75
2022/07/25 04:41:07;;;;;;;15.80;13.27;;;21.20;99.90;;;;;;5025135;28;21187;-75
2022/07/25 04:43:34;;;;;;;13.67;12.37;;;21.20;99.90;;;;;;5025338;28;20577;-75
2022/07/25 04:46:01;;;;;;;16.73;13.50;;;21.20;99.90;;;;;;5024397;28;20604;-69
2022/07/25 04:48:28;;;;;;;15.53;13.80;;;21.20;99.90;;;;;;5024685;28;20465;-70
2022/07/25 04:50:54;;;;;;;15.10;12.70;;;21.20;99.90;;;;;;5025146;28;20481;-67
2022/07/25 04:53:23;;;;;;;15.83;14.10;;;21.20;99.90;;;;;;5024725;28;21060;-67
2022/07/25 04:55:49;;;;;;;14.00;12.50;;;21.10;99.90;;;;;;5024024;28;20458;-68
2022/07/25 04:58:16;;;;;;;15.40;13.50;;;21.20;99.90;;;;;;5024340;28;20461;-69
2022/07/25 05:00:44;;;;;;;17.60;13.03;;;21.10;99.90;;;;;;5024973;28;20495;-68
2022/07/25 05:03:11;;;;;;;18.30;13.57;;;21.10;99.90;;;;;;5025034;28;21047;-69
2022/07/25 05:05:38;;;;;;;16.73;13.40;;;21.20;99.90;;;;;;5024302;28;20914;-68
2022/07/25 05:08:05;;;;;;;14.60;12.90;;;21.10;99.90;;;;;;5024190;28;20949;-68
2022/07/25 05:10:33;;;;;;;14.03;12.50;;;21.10;99.90;;;;;;5027771;28;20478;-69
2022/07/25 05:13:00;;;;;;;14.80;13.23;;;21.20;99.90;;;;;;5028532;28;20963;-68
2022/07/25 05:15:27;;;;;;;14.30;12.80;;;21.20;99.90;;;;;;5027525;28;20466;-69
2022/07/25 05:17:54;;;;;;;15.70;13.40;;;21.20;99.90;;;;;;5028298;28;20487;-68
2022/07/25 05:20:21;;;;;;;18.17;13.10;;;21.20;99.90;;;;;;5027967;28;20495;-71
2022/07/25 05:22:48;;;;;;;15.73;14.20;;;21.20;99.90;;;;;;5027729;28;20465;-68
2022/07/25 05:25:14;;;;;;;16.30;13.70;;;21.20;99.90;;;;;;5027115;28;20465;-68
2022/07/25 05:27:43;;;;;;;16.37;13.63;;;21.20;99.90;;;;;;5027880;28;20462;-68
2022/07/25 05:30:12;;;;;;;15.77;14.03;;;21.20;99.90;;;;;;5027890;28;20934;-68
2022/07/25 05:32:39;;;;;;;15.47;13.17;;;21.20;99.90;;;;;;5028134;28;20461;-77
2022/07/25 05:35:07;;;;;;;14.40;12.53;;;21.20;99.90;;;;;;5027298;28;20492;-77
2022/07/25 05:37:35;;;;;;;15.43;12.67;;;21.20;99.90;;;;;;5027396;28;20466;-77
2022/07/25 05:40:02;;;;;;;17.20;13.10;;;21.20;99.90;;;;;;5027929;28;20490;-77
2022/07/25 05:42:30;;;;;;;17.73;13.97;;;21.30;99.90;;;;;;5027679;28;20977;-77
2022/07/25 05:44:58;;;;;;;17.07;13.57;;;21.30;99.90;;;;;;5027343;28;20466;-78
2022/07/25 05:47:25;;;;;;;18.43;13.10;;;21.30;99.90;;;;;;5027818;28;20454;-77
2022/07/25 05:49:52;;;;;;;16.60;14.10;;;21.30;99.90;;;;;;5027818;28;20458;-77
2022/07/25 05:52:18;;;;;;;15.13;13.53;;;21.30;99.90;;;;;;5027368;28;21310;-77
2022/07/25 05:54:45;;;;;;;15.67;13.00;;;21.40;99.90;;;;;;5026744;28;21243;-77
2022/07/25 05:57:12;;;;;;;15.60;12.40;;;21.40;99.90;;;;;;5026265;28;20454;-76
2022/07/25 05:59:39;;;;;;;15.63;13.57;;;21.40;99.90;;;;;;5026882;28;20493;-76
2022/07/25 06:02:07;;;;;;;17.83;13.97;;;21.40;99.90;;;;;;5026575;28;20580;-75
2022/07/25 06:04:34;;;;;;;15.50;13.90;;;21.50;99.90;;;;;;5025589;28;20462;-75
2022/07/25 06:07:01;;;;;;;17.60;13.17;;;21.50;99.90;;;;;;5025900;28;20462;-76
2022/07/25 06:09:29;;;;;;;18.33;14.23;;;21.50;99.90;;;;;;5026253;28;20460;-76
2022/07/25 06:11:56;;;;;;;16.77;13.50;;;21.60;99.90;;;;;;5026299;28;20489;-76
2022/07/25 06:14:23;;;;;;;17.27;13.90;;;21.60;99.90;;;;;;5025273;28;20461;-76
2022/07/25 06:16:49;;;;;;;18.43;13.00;;;21.70;99.90;;;;;;5026186;28;20464;-76
2022/07/25 06:19:18;;;;;;;15.40;13.50;;;21.70;99.90;;;;;;5025722;28;20498;-76
2022/07/25 06:21:45;;;;;;;15.30;13.70;;;21.80;99.90;;;;;;5025924;28;20523;-76
2022/07/25 06:24:12;;;;;;;20.47;13.77;;;21.80;99.90;;;;;;5024482;28;20457;-76
2022/07/25 06:26:38;;;;;;;19.37;13.40;;;21.90;99.90;;;;;;5026251;28;20464;-76
2022/07/25 06:29:05;;;;;;;15.97;14.30;;;22.00;99.90;;;;;;5025736;28;20620;-76
2022/07/25 06:31:32;;;;;;;16.00;12.60;;;22.00;99.90;;;;;;5025942;28;20513;-76
2022/07/25 06:33:59;;;;;;;14.87;13.30;;;22.20;99.90;;;;;;5025440;28;20464;-76
2022/07/25 06:36:27;;;;;;;18.67;13.20;;;22.20;99.90;;;;;;5026429;28;20465;-76
2022/07/25 06:38:54;;;;;;;17.63;14.90;;;22.40;99.90;;;;;;5026495;28;20460;-76
2022/07/25 06:41:21;;;;;;;15.73;13.50;;;22.40;99.90;;;;;;5026690;28;20477;-75
2022/07/25 06:43:48;;;;;;;13.73;12.27;;;22.50;99.90;;;;;;5026369;28;20458;-75
2022/07/25 06:46:14;;;;;;;12.20;11.00;;;22.50;99.90;;;;;;5025852;28;20469;-76
2022/07/25 06:48:41;;;;;;;12.83;11.53;;;22.60;99.90;;;;;;5026602;28;21229;-77
2022/07/25 06:51:08;;;;;;;12.73;11.43;;;22.70;99.90;;;;;;5026352;28;20484;-76
2022/07/25 06:53:36;;;;;;;12.57;11.20;;;22.80;99.90;;;;;;5026310;28;20458;-76
2022/07/25 06:56:03;;;;;;;13.70;12.30;;;22.90;99.90;;;;;;5025755;28;20462;-76
2022/07/25 06:58:30;;;;;;;13.33;11.67;;;22.90;99.90;;;;;;5026481;28;20462;-76
2022/07/25 07:00:59;;;;;;;12.47;10.90;;;23.00;99.90;;;;;;5025764;28;20498;-76
2022/07/25 07:03:26;;;;;;;12.60;11.33;;;23.10;99.90;;;;;;5027158;28;20987;-76
2022/07/25 07:05:53;;;;;;;13.87;11.60;;;23.20;99.90;;;;;;5025911;28;20504;-77
2022/07/25 07:08:20;;;;;;;14.20;11.17;;;23.30;99.90;;;;;;5026065;28;20510;-77
2022/07/25 07:10:48;;;;;;;14.03;11.47;;;23.40;99.90;;;;;;5025709;28;20472;-77
2022/07/25 07:13:17;;;;;;;13.43;11.77;;;23.50;99.90;;;;;;5025981;28;20855;-76
2022/07/25 07:15:48;;;;;;;13.80;11.47;;;23.60;99.90;;;;;;5025445;28;20493;-76
2022/07/25 07:18:15;;;;;;;14.43;11.43;;;23.70;99.90;;;;;;5025977;28;20462;-76
2022/07/25 07:20:42;;;;;;;12.60;11.30;;;23.80;99.90;;;;;;5025913;28;20585;-76
2022/07/25 07:23:09;;;;;;;12.43;11.13;;;23.90;99.90;;;;;;5025664;28;20462;-76
2022/07/25 07:25:36;;;;;;;13.20;10.10;;;24.00;99.90;;;;;;5025306;28;20456;-76
2022/07/25 07:28:06;;;;;;;13.20;11.50;;;24.10;99.90;;;;;;5025515;28;21546;-76
2022/07/25 07:30:33;;;;;;;15.70;11.47;;;24.20;99.90;;;;;;5025619;28;20482;-76
2022/07/25 07:33:00;;;;;;;11.83;10.73;;;24.20;99.90;;;;;;5025475;28;20466;-76
2022/07/25 07:35:27;;;;;;;11.87;10.73;;;24.30;99.90;;;;;;5025192;28;21268;-76
2022/07/25 07:37:54;;;;;;;12.53;11.23;;;24.40;99.90;;;;;;5025579;28;20453;-76
2022/07/25 07:40:22;;;;;;;12.53;10.70;;;24.60;99.90;;;;;;5025032;28;20555;-76
2022/07/25 07:42:50;;;;;;;13.83;10.83;;;24.60;99.90;;;;;;5025788;28;20552;-76
2022/07/25 07:45:20;;;;;;;10.80;9.47;;;24.70;99.90;;;;;;5025213;28;20449;-76
2022/07/25 07:47:48;;;;;;;11.63;10.57;;;24.80;99.90;;;;;;5025730;28;20450;-76
2022/07/25 07:50:16;;;;;;;11.40;10.20;;;24.90;99.90;;;;;;5025643;28;20465;-76
2022/07/25 07:52:45;;;;;;;17.60;10.90;;;25.00;99.90;;;;;;5025528;28;20552;-76
2022/07/25 07:57:58;;;;;;;14.30;10.03;;;25.20;99.90;;;;;;5025315;28;20441;-77
2022/07/25 08:00:29;;;;;;;11.70;10.53;;;25.20;99.90;;;;;;5025305;28;20929;-77
2022/07/25 08:02:57;;;;;;;11.93;10.83;;;25.40;99.90;;;;;;5025430;28;20552;-77
2022/07/25 08:05:26;;;;;;;13.77;10.90;;;25.40;99.90;;;;;;5024750;28;20495;-77
2022/07/25 08:07:53;;;;;;;11.80;10.57;;;25.60;99.90;;;;;;5025269;28;20546;-77
2022/07/25 08:10:22;;;;;;;10.87;9.70;;;25.70;99.90;;;;;;5025355;28;20460;-77
2022/07/25 08:12:49;;;;;;;11.60;9.60;;;25.80;99.90;;;;;;5025666;28;20497;-77
2022/07/25 08:15:17;;;;;;;14.73;9.70;;;25.90;99.90;;;;;;5024432;28;20464;-77
2022/07/25 08:17:46;;;;;;;12.30;10.13;;;26.00;99.90;;;;;;5025145;28;20457;-77
2022/07/25 08:20:14;;;;;;;11.60;10.37;;;26.10;99.90;;;;;;5025125;28;20490;-77
2022/07/25 08:22:42;;;;;;;12.43;10.00;;;26.30;99.90;;;;;;5025257;28;20548;-76
2022/07/25 08:25:12;;;;;;;10.97;9.87;;;26.40;99.90;;;;;;5021745;28;20818;-76
2022/07/25 08:27:39;;;;;;;11.70;10.30;;;26.50;99.90;;;;;;5021486;28;20454;-77
2022/07/25 08:30:08;;;;;;;11.03;9.93;;;26.70;99.90;;;;;;5024990;28;20448;-77
2022/07/25 08:32:48;;;;;;;11.03;10.00;;;26.80;99.90;;;;;;5024733;28;20853;-69
2022/07/25 08:35:15;;;;;;;11.53;9.40;;;26.90;99.90;;;;;;5024085;28;20430;-68
2022/07/25 08:37:42;;;;;;;13.67;10.53;;;27.10;99.90;;;;;;5024646;28;20449;-71
2022/07/25 08:40:11;;;;;;;10.53;9.43;;;27.20;99.90;;;;;;5025418;28;20500;-68
2022/07/25 08:42:39;;;;;;;14.77;9.80;;;27.30;99.90;;;;;;5026283;28;20481;-69
2022/07/25 08:45:08;;;;;;;15.50;9.93;;;27.40;99.90;;;;;;5027953;28;20468;-68
2022/07/25 08:47:35;;;;;;;10.10;9.10;;;27.50;99.90;;;;;;5028980;28;21010;-69
2022/07/25 08:50:06;;;;;;;12.60;10.47;;;27.60;99.90;;;;;;5029116;28;20484;-70
2022/07/25 08:52:35;;;;;;;11.70;10.57;;;27.60;99.90;;;;;;5028756;28;20473;-69
2022/07/25 08:55:02;;;;;;;11.57;10.37;;;27.70;99.90;;;;;;5028056;28;20465;-70
2022/07/25 08:57:29;;;;;;;10.53;9.43;;;27.80;99.90;;;;;;5028576;28;20579;-71
2022/07/25 08:59:58;;;;;;;18.93;12.03;;;27.80;99.90;;;;;;5028294;28;20495;-69
2022/07/25 09:02:29;;;;;;;11.57;10.47;;;27.90;99.90;;;;;;5028597;28;20650;-69
2022/07/25 09:04:57;;;;;;;12.20;10.03;;;28.00;99.90;;;;;;5027744;28;20457;-77
2022/07/25 09:07:34;;;;;;;10.80;9.60;;;28.10;99.90;;;;;;5029049;28;20464;-77
2022/07/25 09:10:12;;;;;;;10.77;9.63;;;28.20;99.90;;;;;;5027895;28;21123;-77
2022/07/25 09:12:40;;;;;;;10.63;9.53;;;28.20;99.90;;;;;;5028141;28;20869;-77
2022/07/25 09:15:08;;;;;;;11.73;10.03;;;28.30;99.90;;;;;;5027367;28;20978;-77
2022/07/25 09:17:35;;;;;;;10.67;9.57;;;28.40;99.90;;;;;;5028233;28;20454;-77
2022/07/25 09:20:03;;;;;;;12.63;9.90;;;28.40;99.90;;;;;;5028217;28;20997;-77
2022/07/25 09:22:31;;;;;;;10.60;9.40;;;28.50;99.90;;;;;;5026449;28;20477;-77
2022/07/25 09:24:58;;;;;;;10.80;9.70;;;28.50;99.90;;;;;;5026650;28;20520;-77
2022/07/25 09:27:25;;;;;;;10.43;9.53;;;28.60;99.90;;;;;;5027235;28;20448;-77
2022/07/25 09:29:52;;;;;;;11.70;10.60;;;28.70;99.90;;;;;;5027411;28;20465;-77
2022/07/25 09:32:21;;;;;;;10.10;9.10;;;28.80;99.90;;;;;;5027118;28;20480;-77
2022/07/25 09:34:50;;;;;;;10.57;9.20;;;28.80;99.90;;;;;;5026230;28;20556;-77
2022/07/25 09:37:18;;;;;;;10.90;7.90;;;29.00;99.90;;;;;;5026371;28;20450;-77
2022/07/25 09:39:49;;;;;;;9.40;8.17;;;29.10;99.90;;;;;;5026961;28;20822;-77
2022/07/25 09:42:22;;;;;;;10.30;9.23;;;29.20;99.90;;;;;;5026810;28;20477;-77
2022/07/25 09:45:00;;;;;;;10.87;8.30;;;29.40;99.90;;;;;;5026771;28;20820;-78
2022/07/25 09:47:27;;;;;;;9.23;8.33;;;29.50;99.90;;;;;;5027835;28;20462;-77
2022/07/25 09:49:54;;;;;;;10.20;9.20;;;29.60;99.90;;;;;;5027258;28;20454;-77
2022/07/25 09:52:21;;;;;;;9.33;8.43;;;29.70;99.90;;;;;;5027813;28;20482;-77
2022/07/25 09:54:49;;;;;;;12.40;9.77;;;29.80;99.90;;;;;;5026258;28;20560;-77
2022/07/25 09:57:16;;;;;;;9.90;8.90;;;29.90;99.90;;;;;;5027203;28;20880;-77
2022/07/25 09:59:44;;;;;;;9.60;8.57;;;29.90;99.90;;;;;;5027253;28;20468;-77
2022/07/25 10:02:17;;;;;;;12.40;9.20;;;30.00;99.90;;;;;;5027070;28;20498;-77
2022/07/25 10:04:49;;;;;;;13.40;8.93;;;30.00;99.90;;;;;;5027035;28;21125;-78
2022/07/25 10:07:19;;;;;;;12.10;9.30;;;30.10;99.90;;;;;;5027787;28;20449;-77
2022/07/25 10:09:49;;;;;;;9.23;8.33;;;30.10;99.90;;;;;;5027303;28;20464;-77
2022/07/25 10:12:19;;;;;;;14.43;9.00;;;30.20;99.90;;;;;;5026133;28;20474;-77
2022/07/25 10:15:05;;;;;;;11.63;8.40;;;30.30;99.90;;;;;;5024244;28;20453;-77
2022/07/25 10:17:32;;;;;;;10.80;8.00;;;30.40;99.90;;;;;;5025690;28;20464;-78
2022/07/25 10:20:00;;;;;;;11.73;7.50;;;30.50;99.90;;;;;;5025510;28;20461;-78
2022/07/25 10:22:39;;;;;;;9.90;7.97;;;30.50;99.90;;;;;;5025081;28;20493;-78
2022/07/25 10:25:15;;;;;;;10.13;8.57;;;30.70;99.90;;;;;;5025302;28;20438;-77
2022/07/25 10:27:48;;;;;;;8.83;8.00;;;30.70;99.90;;;;;;5026240;28;20438;-77
2022/07/25 10:30:26;;;;;;;8.10;7.27;;;30.80;99.90;;;;;;5026736;28;20454;-78
2022/07/25 10:32:57;;;;;;;11.53;8.37;;;30.90;99.90;;;;;;5026722;28;20829;-78
2022/07/25 10:35:25;;;;;;;22.63;8.40;;;30.90;99.90;;;;;;5025830;28;20458;-78
2022/07/25 10:37:54;;;;;;;8.47;7.50;;;31.00;99.90;;;;;;5026425;28;20799;-78
2022/07/25 10:40:33;;;;;;;12.13;8.10;;;31.10;99.90;;;;;;5026600;28;20505;-78
2022/07/25 10:43:08;;;;;;;10.63;7.80;;;31.20;99.90;;;;;;5026706;28;20468;-78
2022/07/25 10:45:41;;;;;;;8.87;7.97;;;31.30;99.90;;;;;;5026254;28;20532;-78
2022/07/25 10:48:10;;;;;;;10.13;7.87;;;31.30;99.90;;;;;;5026595;28;20469;-72
2022/07/25 10:50:51;;;;;;;8.23;7.20;;;31.40;99.90;;;;;;5026677;28;20470;-72
2022/07/25 10:53:32;;;;;;;7.00;6.40;;;31.40;99.90;;;;;;5026160;28;20446;-71
2022/07/25 10:56:04;;;;;;;10.20;8.93;;;31.40;99.90;;;;;;5025584;28;20904;-72
2022/07/25 10:58:42;;;;;;;9.93;7.90;;;31.60;99.90;;;;;;5026036;28;20465;-71
2022/07/25 11:01:12;;;;;;;7.37;6.67;;;31.60;99.90;;;;;;5019338;28;20556;-71
2022/07/25 11:03:40;;;;;;;11.80;7.70;;;31.70;99.90;;;;;;5015058;28;20450;-69
2022/07/25 11:06:07;;;;;;;8.63;6.60;;;31.70;99.90;;;;;;5020861;28;20532;-73
2022/07/25 11:08:35;;;;;;;10.90;6.70;;;31.80;99.90;;;;;;5025918;28;20481;-71
2022/07/25 11:11:04;;;;;;;8.20;7.17;;;31.80;99.90;;;;;;5024448;28;20544;-69
2022/07/25 11:13:36;;;;;;;8.37;7.57;;;31.90;99.90;;;;;;5026387;28;20462;-76
2022/07/25 11:16:02;;;;;;;7.50;6.60;;;32.00;99.90;;;;;;5025185;28;20922;-76
2022/07/25 11:18:35;;;;;;;7.87;7.13;;;32.00;99.90;;;;;;5026409;28;20469;-76
2022/07/25 11:21:06;;;;;;;7.70;6.90;;;32.10;99.90;;;;;;5026127;28;20505;-78
2022/07/25 11:23:33;;;;;;;8.83;7.43;;;32.20;99.90;;;;;;5026057;28;20446;-76
2022/07/25 11:26:12;;;;;;;8.17;7.30;;;32.20;99.90;;;;;;5025785;28;20469;-76
2022/07/25 11:28:40;;;;;;;11.13;7.27;;;32.30;99.90;;;;;;5026107;28;20820;-76
2022/07/25 11:31:07;;;;;;;7.00;6.30;;;32.30;99.90;;;;;;5025726;28;20484;-77
2022/07/25 11:33:35;;;;;;;6.67;6.07;;;32.40;99.90;;;;;;5024847;28;20490;-77
2022/07/25 11:36:03;;;;;;;6.90;6.20;;;32.40;99.90;;;;;;5022075;28;20458;-77
2022/07/25 11:38:30;;;;;;;7.40;6.47;;;32.50;99.90;;;;;;5025420;28;20462;-77
2022/07/25 11:40:57;;;;;;;7.73;7.03;;;32.60;99.90;;;;;;5025307;28;21082;-77
2022/07/25 11:43:25;;;;;;;7.37;6.07;;;32.60;99.90;;;;;;5025617;28;20462;-77
2022/07/25 11:45:57;;;;;;;7.90;6.93;;;32.70;99.90;;;;;;5025198;28;20462;-77
2022/07/25 11:48:31;;;;;;;10.30;6.73;;;32.80;99.90;;;;;;5024463;28;20545;-77
2022/07/25 11:50:58;;;;;;;9.33;7.10;;;32.80;99.90;;;;;;5024911;28;21040;-76
2022/07/25 11:53:25;;;;;;;7.23;6.57;;;32.90;99.90;;;;;;5024692;28;20480;-76
2022/07/25 11:55:52;;;;;;;11.13;6.80;;;32.90;99.90;;;;;;5024099;28;20465;-77
2022/07/25 11:58:19;;;;;;;7.40;6.40;;;33.00;99.90;;;;;;5025765;28;20549;-77
2022/07/25 12:00:49;;;;;;;6.70;5.60;;;33.10;99.90;;;;;;5025082;28;20486;-77
2022/07/25 12:03:19;;;;;;;8.53;6.60;;;33.10;99.90;;;;;;5025616;28;21213;-77
2022/07/25 12:05:49;;;;;;;7.23;6.53;;;33.20;99.90;;;;;;5024275;28;20568;-77
2022/07/25 12:08:18;;;;;;;9.73;6.60;;;33.20;99.90;;;;;;5025234;28;20458;-77
2022/07/25 12:10:50;;;;;;;7.30;6.60;;;33.40;99.90;;;;;;5024790;28;21021;-77
2022/07/25 12:13:23;;;;;;;9.87;6.80;;;33.40;99.90;;;;;;5024196;28;20563;-77
2022/07/25 12:15:51;;;;;;;6.93;6.30;;;33.50;99.90;;;;;;5023726;28;20643;-77
2022/07/25 12:18:21;;;;;;;6.53;5.93;;;33.60;99.70;;;;;;5025788;28;20450;-77
2022/07/25 12:20:48;;;;;;;7.10;6.40;;;33.60;99.30;;;;;;5029845;28;20481;-77
2022/07/25 12:23:15;;;;;;;10.47;6.10;;;33.60;99.80;;;;;;5029371;28;20461;-72
2022/07/25 12:25:43;;;;;;;8.67;6.70;;;33.70;99.00;;;;;;5028132;28;20465;-72
2022/07/25 12:28:10;;;;;;;6.90;6.30;;;33.80;99.80;;;;;;5027930;28;20461;-72
2022/07/25 12:30:39;;;;;;;7.30;6.60;;;33.80;99.10;;;;;;5028885;28;20474;-72
2022/07/25 12:33:07;;;;;;;11.90;6.93;;;33.90;99.10;;;;;;5029085;28;20465;-71
2022/07/25 12:35:36;;;;;;;9.40;6.70;;;33.90;99.90;;;;;;5028250;28;20968;-69
2022/07/25 12:38:03;;;;;;;7.43;6.27;;;33.90;98.20;;;;;;5028937;28;20466;-71
2022/07/25 12:40:30;;;;;;;6.63;6.00;;;33.90;98.80;;;;;;5028648;28;20461;-75
2022/07/25 12:42:57;;;;;;;7.20;6.40;;;33.90;99.50;;;;;;5029203;28;21065;-70
2022/07/25 12:45:25;;;;;;;8.00;6.83;;;34.00;98.30;;;;;;5028442;28;20476;-69
2022/07/25 12:47:51;;;;;;;7.73;6.37;;;34.10;99.70;;;;;;5028906;28;20462;-76
2022/07/25 12:50:20;;;;;;;7.53;6.13;;;34.20;98.60;;;;;;5028877;28;20466;-76
2022/07/25 12:52:47;;;;;;;9.60;5.90;;;34.20;98.70;;;;;;5028841;28;21007;-76
2022/07/25 12:55:19;;;;;;;8.20;5.80;;;34.40;97.50;;;;;;5027711;28;20453;-76
2022/07/25 12:57:46;;;;;;;11.33;6.40;;;34.50;98.90;;;;;;5028716;28;20468;-76
2022/07/25 13:00:17;;;;;;;6.27;5.50;;;34.50;96.90;;;;;;5028728;28;20461;-76
2022/07/25 13:02:44;;;;;;;10.00;6.10;;;34.60;96.80;;;;;;5028948;28;20500;-76
2022/07/25 13:05:11;;;;;;;8.60;5.63;;;34.60;95.90;;;;;;5027712;28;20469;-76
2022/07/25 13:07:39;;;;;;;6.90;6.10;;;34.50;96.10;;;;;;5028186;28;20457;-77
2022/07/25 13:10:07;;;;;;;6.67;6.00;;;34.50;96.70;;;;;;5028604;28;20485;-68
2022/07/25 13:12:34;;;;;;;6.23;5.63;;;34.40;96.00;;;;;;5028540;28;20485;-72
2022/07/25 13:15:02;;;;;;;6.87;5.77;;;34.40;96.30;;;;;;5028094;28;20454;-68
2022/07/25 13:17:28;;;;;;;6.97;5.87;;;34.40;96.70;;;;;;5028501;28;20458;-71
2022/07/25 13:19:56;;;;;;;9.70;6.50;;;34.30;97.10;;;;;;5028204;28;20462;-71
2022/07/25 13:22:23;;;;;;;6.80;6.20;;;34.30;97.40;;;;;;5027872;28;20996;-69
2022/07/25 13:24:52;;;;;;;8.90;6.27;;;34.20;96.30;;;;;;5027924;28;20457;-69
2022/07/25 13:27:20;;;;;;;6.80;5.83;;;34.20;95.90;;;;;;5027440;28;20454;-69
2022/07/25 13:29:52;;;;;;;7.90;7.10;;;34.10;96.20;;;;;;5026924;28;20905;-68
2022/07/25 13:32:19;;;;;;;7.07;6.37;;;34.00;95.70;;;;;;5028297;28;20848;-68
2022/07/25 13:34:46;;;;;;;6.70;6.10;;;34.00;96.80;;;;;;5027295;28;20461;-69
2022/07/25 13:37:13;;;;;;;7.07;6.40;;;33.90;95.90;;;;;;5028398;28;20465;-71
2022/07/25 13:39:41;;;;;;;6.80;6.10;;;33.90;96.50;;;;;;5028210;28;20450;-70
2022/07/25 13:42:09;;;;;;;7.67;6.87;;;33.90;96.00;;;;;;5027573;28;20494;-69
2022/07/25 13:44:36;;;;;;;6.47;5.83;;;33.70;96.70;;;;;;5026995;28;20461;-69
2022/07/25 13:47:04;;;;;;;6.80;6.20;;;33.70;96.80;;;;;;5027421;28;21322;-68
2022/07/25 13:49:31;;;;;;;7.33;6.30;;;33.70;96.40;;;;;;5027720;28;20472;-71
2022/07/25 13:51:58;;;;;;;7.80;7.00;;;33.70;97.80;;;;;;5027911;28;20484;-69
2022/07/25 13:54:25;;;;;;;7.90;7.13;;;33.70;98.60;;;;;;5026916;28;20465;-70
2022/07/25 13:56:52;;;;;;;6.97;6.37;;;33.70;98.70;;;;;;5027712;28;20458;-70
2022/07/25 13:59:20;;;;;;;7.90;7.10;;;33.80;99.50;;;;;;5027899;28;20468;-69
2022/07/25 14:01:47;;;;;;;11.60;6.60;;;33.80;98.90;;;;;;5027297;28;20501;-69
2022/07/25 14:04:14;;;;;;;9.30;7.00;;;33.80;98.50;;;;;;5026615;28;20462;-70
2022/07/25 14:06:40;;;;;;;9.77;6.80;;;33.80;98.30;;;;;;5027411;28;20457;-71
2022/07/25 14:09:07;;;;;;;10.33;7.00;;;33.90;98.60;;;;;;5027504;28;20457;-71
2022/07/25 14:11:34;;;;;;;9.50;7.00;;;34.00;97.70;;;;;;5027149;28;21386;-69
2022/07/25 14:14:01;;;;;;;7.53;6.73;;;34.00;98.40;;;;;;5026858;28;20458;-69
2022/07/25 14:16:29;;;;;;;9.67;6.30;;;34.00;97.50;;;;;;5025601;28;20981;-69
2022/07/25 14:18:56;;;;;;;6.90;6.20;;;33.90;96.50;;;;;;5026281;28;20450;-69
2022/07/25 14:21:23;;;;;;;8.63;6.73;;;33.90;96.80;;;;;;5027093;28;20485;-69
2022/07/25 14:23:50;;;;;;;9.80;7.17;;;33.80;96.70;;;;;;5026920;28;20466;-69
2022/07/25 14:26:17;;;;;;;9.80;7.33;;;33.70;97.00;;;;;;5026225;28;20836;-68
2022/07/25 14:28:43;;;;;;;9.70;7.80;;;33.70;97.20;;;;;;5027260;28;20460;-72
2022/07/25 14:31:12;;;;;;;9.27;7.80;;;33.60;97.00;;;;;;5026858;28;21092;-77
2022/07/25 14:33:40;;;;;;;8.03;7.17;;;33.50;97.50;;;;;;5026736;28;21465;-77
2022/07/25 14:36:08;;;;;;;14.37;7.10;;;33.50;97.60;;;;;;5026052;28;20454;-77
2022/07/25 14:38:35;;;;;;;8.00;7.20;;;33.40;97.70;;;;;;5027193;28;20457;-77
2022/07/25 14:41:02;;;;;;;7.97;6.70;;;33.20;98.80;;;;;;5025101;28;20488;-76
2022/07/25 14:43:28;;;;;;;9.77;7.80;;;33.20;99.40;;;;;;5026443;28;21037;-76
2022/07/25 14:45:55;;;;;;;10.00;7.57;;;33.20;99.20;;;;;;5026124;28;20458;-76
2022/07/25 14:48:22;;;;;;;10.37;7.60;;;33.10;99.20;;;;;;5026630;28;20980;-76
2022/07/25 14:50:50;;;;;;;8.13;7.43;;;33.10;99.30;;;;;;5024903;28;20845;-76
2022/07/25 14:53:17;;;;;;;11.77;7.43;;;33.00;98.50;;;;;;5026441;28;20556;-76
2022/07/25 14:55:44;;;;;;;8.10;7.30;;;32.90;98.70;;;;;;5026120;28;20458;-76
2022/07/25 14:58:12;;;;;;;8.47;7.67;;;32.80;99.00;;;;;;5026442;28;20466;-76
2022/07/25 15:00:41;;;;;;;8.20;7.20;;;32.80;99.90;;;;;;5026259;28;20485;-76
2022/07/25 15:03:09;;;;;;;10.03;7.30;;;32.70;99.50;;;;;;5026280;28;20560;-76
2022/07/25 15:05:37;;;;;;;9.90;7.23;;;32.60;99.60;;;;;;5023342;28;20856;-76
2022/07/25 15:08:07;;;;;;;10.27;7.20;;;32.60;99.90;;;;;;5024695;28;20973;-76
2022/07/25 15:10:34;;;;;;;8.07;7.10;;;32.60;99.90;;;;;;5024343;28;20488;-76
2022/07/25 15:13:01;;;;;;;8.83;7.77;;;32.50;99.80;;;;;;5025647;28;20469;-76
2022/07/25 15:15:28;;;;;;;8.57;7.77;;;32.60;99.90;;;;;;5024453;28;20958;-76
2022/07/25 15:17:54;;;;;;;8.63;7.73;;;32.60;99.90;;;;;;5025306;28;20492;-76
2022/07/25 15:20:21;;;;;;;10.83;7.73;;;32.80;99.50;;;;;;5025337;28;20525;-76
2022/07/25 15:22:48;;;;;;;8.40;7.60;;;32.80;98.90;;;;;;5025056;28;20872;-76
2022/07/25 15:25:17;;;;;;;8.03;7.33;;;32.80;98.30;;;;;;5023504;28;20462;-76
2022/07/25 15:27:44;;;;;;;8.60;7.27;;;33.00;98.70;;;;;;5025063;28;20458;-76
2022/07/25 15:30:11;;;;;;;8.60;7.70;;;33.00;98.30;;;;;;5025087;28;20453;-76
2022/07/25 15:32:38;;;;;;;8.80;7.80;;;33.00;98.00;;;;;;5025182;28;20580;-76
2022/07/25 15:35:06;;;;;;;10.13;8.17;;;33.00;98.40;;;;;;5023809;28;21037;-76
2022/07/25 15:37:33;;;;;;;8.10;7.30;;;33.10;98.50;;;;;;5024385;28;20460;-76
2022/07/25 15:40:00;;;;;;;11.13;8.00;;;33.20;97.80;;;;;;5024901;28;20458;-75
2022/07/25 15:42:28;;;;;;;9.20;7.47;;;33.20;98.10;;;;;;5024397;28;20512;-76
2022/07/25 15:44:55;;;;;;;10.00;7.20;;;33.20;97.70;;;;;;5024394;28;20473;-76
2022/07/25 15:47:22;;;;;;;10.67;7.50;;;33.30;98.50;;;;;;5024041;28;20975;-75
2022/07/25 15:49:48;;;;;;;7.97;7.10;;;33.30;98.70;;;;;;5024546;28;20484;-76
2022/07/25 15:52:16;;;;;;;8.80;7.47;;;33.40;99.10;;;;;;5023596;28;20481;-76
2022/07/25 15:54:43;;;;;;;9.30;7.30;;;33.30;99.70;;;;;;5023746;28;20464;-76
2022/07/25 15:57:10;;;;;;;12.10;7.70;;;33.20;99.60;;;;;;5024421;28;20461;-75
2022/07/25 15:59:39;;;;;;;9.90;7.87;;;33.00;99.90;;;;;;5024969;28;20470;-76
2022/07/25 16:02:09;;;;;;;11.27;7.77;;;33.00;99.90;;;;;;5024217;28;20504;-76
2022/07/25 16:04:35;;;;;;;8.97;7.60;;;32.70;99.90;;;;;;5023975;28;20465;-76
2022/07/25 16:07:02;;;;;;;9.47;8.30;;;32.60;99.90;;;;;;5024303;28;20470;-76
2022/07/25 16:09:29;;;;;;;8.63;7.37;;;32.50;99.90;;;;;;5023707;28;20962;-76
2022/07/25 16:11:56;;;;;;;9.43;7.43;;;32.40;99.90;;;;;;5024524;28;20484;-76
2022/07/25 16:14:23;;;;;;;10.40;7.87;;;32.30;99.90;;;;;;5023581;28;20897;-76
2022/07/25 16:16:52;;;;;;;9.97;8.20;;;32.20;99.90;;;;;;5023901;28;21144;-76
2022/07/25 16:19:18;;;;;;;15.70;8.10;;;32.10;99.90;;;;;;5024124;28;20458;-76
2022/07/25 16:21:45;;;;;;;8.60;7.70;;;32.00;99.90;;;;;;5024665;28;20486;-76
2022/07/25 16:24:12;;;;;;;8.07;7.27;;;32.00;99.90;;;;;;5023355;28;20875;-76
2022/07/25 16:26:39;;;;;;;8.20;7.17;;;32.00;99.90;;;;;;5024475;28;20464;-76
2022/07/25 16:29:06;;;;;;;8.70;7.77;;;32.00;99.90;;;;;;5023992;28;20470;-76
2022/07/25 16:31:33;;;;;;;8.10;7.30;;;32.00;99.90;;;;;;5024219;28;20484;-76
2022/07/25 16:34:01;;;;;;;10.40;7.23;;;31.90;99.90;;;;;;5023174;28;20454;-76
2022/07/25 16:36:28;;;;;;;8.20;7.40;;;31.90;99.90;;;;;;5024052;28;20461;-76
2022/07/25 16:38:55;;;;;;;10.23;7.30;;;31.90;99.90;;;;;;5024241;28;20554;-76
2022/07/25 16:41:22;;;;;;;11.67;6.60;;;31.80;99.90;;;;;;5023949;28;20482;-76
2022/07/25 16:43:48;;;;;;;8.20;7.13;;;31.80;99.90;;;;;;5024053;28;20495;-76
2022/07/25 16:46:15;;;;;;;7.53;6.70;;;31.80;99.90;;;;;;5023519;28;20472;-76